sensor_id;sensor_type;location;lat;lon;timestamp;P1;durP1;ratioP1;P2;durP2;ratioP2
2219;SDS011;1116;51.502;7.414;2023-10-31T00:01:56;1.83;;;1.63;;
2219;SDS011;1116;51.502;7.414;2023-10-31T00:04:26;2.95;;;1.67;;
2219;SDS011;1116;51.502;7.414;2023-10-31T00:06:57;2.13;;;1.80;;
2219;SDS011;1116;51.502;7.414;2023-10-31T00:09:30;2.70;;;2.10;;
2219;SDS011;1116;51.502;7.414;2023-10-31T00:12:00;2.88;;;2.28;;
2219;SDS011;1116;51.502;7.414;2023-10-31T00:14:30;3.60;;;2.40;;
2219;SDS011;1116;51.502;7.414;2023-10-31T00:17:00;2.85;;;2.00;;
2219;SDS011;1116;51.502;7.414;2023-10-31T00:19:30;2.60;;;2.40;;
2219;SDS011;1116;51.502;7.414;2023-10-31T00:22:01;3.28;;;2.38;;
2219;SDS011;1116;51.502;7.414;2023-10-31T00:24:34;3.88;;;2.63;;
2219;SDS011;1116;51.502;7.414;2023-10-31T00:27:04;5.32;;;3.42;;
2219;SDS011;1116;51.502;7.414;2023-10-31T00:29:34;3.65;;;2.63;;
2219;SDS011;1116;51.502;7.414;2023-10-31T00:32:05;4.78;;;3.20;;
2219;SDS011;1116;51.502;7.414;2023-10-31T00:34:35;7.30;;;3.00;;
2219;SDS011;1116;51.502;7.414;2023-10-31T00:37:05;5.85;;;2.85;;
2219;SDS011;1116;51.502;7.414;2023-10-31T00:39:38;5.65;;;3.65;;
2219;SDS011;1116;51.502;7.414;2023-10-31T00:42:09;6.55;;;3.03;;
2219;SDS011;1116;51.502;7.414;2023-10-31T00:44:39;3.95;;;3.05;;
2219;SDS011;1116;51.502;7.414;2023-10-31T00:47:09;3.38;;;2.63;;
2219;SDS011;1116;51.502;7.414;2023-10-31T00:49:39;5.28;;;2.65;;
2219;SDS011;1116;51.502;7.414;2023-10-31T00:52:09;5.13;;;2.90;;
2219;SDS011;1116;51.502;7.414;2023-10-31T00:54:42;3.97;;;2.42;;
2219;SDS011;1116;51.502;7.414;2023-10-31T00:57:12;2.90;;;2.53;;
2219;SDS011;1116;51.502;7.414;2023-10-31T00:59:42;3.10;;;2.05;;
2219;SDS011;1116;51.502;7.414;2023-10-31T01:02:13;3.22;;;1.65;;
2219;SDS011;1116;51.502;7.414;2023-10-31T01:04:43;2.28;;;1.98;;
2219;SDS011;1116;51.502;7.414;2023-10-31T01:07:13;8.90;;;2.05;;
2219;SDS011;1116;51.502;7.414;2023-10-31T01:09:46;3.03;;;2.30;;
2219;SDS011;1116;51.502;7.414;2023-10-31T01:12:16;4.43;;;2.10;;
2219;SDS011;1116;51.502;7.414;2023-10-31T01:14:47;3.25;;;2.30;;
2219;SDS011;1116;51.502;7.414;2023-10-31T01:17:17;3.65;;;1.92;;
2219;SDS011;1116;51.502;7.414;2023-10-31T01:19:47;2.95;;;2.00;;
2219;SDS011;1116;51.502;7.414;2023-10-31T01:22:17;2.42;;;1.63;;
2219;SDS011;1116;51.502;7.414;2023-10-31T01:24:50;2.08;;;1.55;;
2219;SDS011;1116;51.502;7.414;2023-10-31T01:27:21;3.17;;;1.80;;
2219;SDS011;1116;51.502;7.414;2023-10-31T01:29:51;2.40;;;1.48;;
2219;SDS011;1116;51.502;7.414;2023-10-31T01:32:21;3.10;;;1.40;;
2219;SDS011;1116;51.502;7.414;2023-10-31T01:34:52;1.70;;;1.20;;
2219;SDS011;1116;51.502;7.414;2023-10-31T01:37:22;3.08;;;1.05;;
2219;SDS011;1116;51.502;7.414;2023-10-31T01:39:55;1.60;;;0.98;;
2219;SDS011;1116;51.502;7.414;2023-10-31T01:42:25;2.20;;;0.90;;
2219;SDS011;1116;51.502;7.414;2023-10-31T01:44:56;1.52;;;1.15;;
2219;SDS011;1116;51.502;7.414;2023-10-31T01:47:26;2.47;;;1.00;;
2219;SDS011;1116;51.502;7.414;2023-10-31T01:49:56;1.80;;;1.10;;
2219;SDS011;1116;51.502;7.414;2023-10-31T01:52:26;0.90;;;0.80;;
2219;SDS011;1116;51.502;7.414;2023-10-31T01:55:02;2.85;;;1.15;;
2219;SDS011;1116;51.502;7.414;2023-10-31T01:57:34;4.63;;;1.25;;
2219;SDS011;1116;51.502;7.414;2023-10-31T02:00:05;2.17;;;1.30;;
2219;SDS011;1116;51.502;7.414;2023-10-31T02:02:36;2.15;;;1.50;;
2219;SDS011;1116;51.502;7.414;2023-10-31T02:05:10;5.68;;;1.92;;
2219;SDS011;1116;51.502;7.414;2023-10-31T02:07:40;2.40;;;1.73;;
2219;SDS011;1116;51.502;7.414;2023-10-31T02:10:17;6.03;;;2.30;;
2219;SDS011;1116;51.502;7.414;2023-10-31T02:12:47;3.75;;;1.92;;
2219;SDS011;1116;51.502;7.414;2023-10-31T02:15:17;2.88;;;2.30;;
2219;SDS011;1116;51.502;7.414;2023-10-31T02:17:47;2.95;;;1.70;;
2219;SDS011;1116;51.502;7.414;2023-10-31T02:20:17;5.15;;;2.30;;
2219;SDS011;1116;51.502;7.414;2023-10-31T02:22:50;4.95;;;2.95;;
2219;SDS011;1116;51.502;7.414;2023-10-31T02:25:20;4.63;;;2.65;;
2219;SDS011;1116;51.502;7.414;2023-10-31T02:27:50;4.30;;;2.80;;
2219;SDS011;1116;51.502;7.414;2023-10-31T02:30:21;4.68;;;3.22;;
2219;SDS011;1116;51.502;7.414;2023-10-31T02:32:51;5.90;;;3.47;;
2219;SDS011;1116;51.502;7.414;2023-10-31T02:35:22;3.10;;;2.55;;
2219;SDS011;1116;51.502;7.414;2023-10-31T02:37:54;4.75;;;2.90;;
2219;SDS011;1116;51.502;7.414;2023-10-31T02:40:24;4.70;;;3.10;;
2219;SDS011;1116;51.502;7.414;2023-10-31T02:42:55;4.47;;;2.95;;
2219;SDS011;1116;51.502;7.414;2023-10-31T02:45:25;4.57;;;3.08;;
2219;SDS011;1116;51.502;7.414;2023-10-31T02:47:55;3.20;;;2.42;;
2219;SDS011;1116;51.502;7.414;2023-10-31T02:50:26;4.43;;;2.70;;
2219;SDS011;1116;51.502;7.414;2023-10-31T02:52:58;4.25;;;2.50;;
2219;SDS011;1116;51.502;7.414;2023-10-31T02:55:29;4.43;;;3.05;;
2219;SDS011;1116;51.502;7.414;2023-10-31T02:57:59;3.28;;;2.40;;
2219;SDS011;1116;51.502;7.414;2023-10-31T03:00:29;3.70;;;1.95;;
2219;SDS011;1116;51.502;7.414;2023-10-31T03:03:00;5.28;;;2.78;;
2219;SDS011;1116;51.502;7.414;2023-10-31T03:05:30;3.28;;;2.33;;
2219;SDS011;1116;51.502;7.414;2023-10-31T03:08:04;7.15;;;2.45;;
2219;SDS011;1116;51.502;7.414;2023-10-31T03:10:37;4.55;;;2.50;;
2219;SDS011;1116;51.502;7.414;2023-10-31T03:13:08;3.22;;;2.00;;
2219;SDS011;1116;51.502;7.414;2023-10-31T03:15:38;4.82;;;1.88;;
2219;SDS011;1116;51.502;7.414;2023-10-31T03:18:08;4.80;;;2.47;;
2219;SDS011;1116;51.502;7.414;2023-10-31T03:20:38;3.28;;;2.10;;
2219;SDS011;1116;51.502;7.414;2023-10-31T03:23:11;3.75;;;2.20;;
2219;SDS011;1116;51.502;7.414;2023-10-31T03:25:41;3.58;;;2.55;;
2219;SDS011;1116;51.502;7.414;2023-10-31T03:28:20;4.43;;;2.80;;
2219;SDS011;1116;51.502;7.414;2023-10-31T03:30:52;8.00;;;3.60;;
2219;SDS011;1116;51.502;7.414;2023-10-31T03:33:22;4.75;;;3.28;;
2219;SDS011;1116;51.502;7.414;2023-10-31T03:35:52;7.90;;;3.80;;
2219;SDS011;1116;51.502;7.414;2023-10-31T03:38:25;4.88;;;3.20;;
2219;SDS011;1116;51.502;7.414;2023-10-31T03:40:55;8.77;;;4.03;;
2219;SDS011;1116;51.502;7.414;2023-10-31T03:43:26;9.45;;;4.47;;
2219;SDS011;1116;51.502;7.414;2023-10-31T03:45:56;6.10;;;4.28;;
2219;SDS011;1116;51.502;7.414;2023-10-31T03:48:26;10.35;;;4.78;;
2219;SDS011;1116;51.502;7.414;2023-10-31T03:50:57;9.32;;;5.45;;
2219;SDS011;1116;51.502;7.414;2023-10-31T03:53:29;7.18;;;4.60;;
2219;SDS011;1116;51.502;7.414;2023-10-31T03:55:59;13.70;;;4.55;;
2219;SDS011;1116;51.502;7.414;2023-10-31T03:58:30;6.93;;;4.90;;
2219;SDS011;1116;51.502;7.414;2023-10-31T04:01:00;8.73;;;5.07;;
2219;SDS011;1116;51.502;7.414;2023-10-31T04:03:30;9.18;;;4.93;;
2219;SDS011;1116;51.502;7.414;2023-10-31T04:06:00;10.75;;;5.53;;
2219;SDS011;1116;51.502;7.414;2023-10-31T04:08:34;11.38;;;4.65;;
2219;SDS011;1116;51.502;7.414;2023-10-31T04:11:04;11.73;;;5.53;;
2219;SDS011;1116;51.502;7.414;2023-10-31T04:13:34;8.35;;;3.92;;
2219;SDS011;1116;51.502;7.414;2023-10-31T04:16:05;11.93;;;4.57;;
2219;SDS011;1116;51.502;7.414;2023-10-31T04:18:36;11.25;;;4.25;;
2219;SDS011;1116;51.502;7.414;2023-10-31T04:21:06;6.32;;;3.88;;
2219;SDS011;1116;51.502;7.414;2023-10-31T04:23:39;6.30;;;3.33;;
2219;SDS011;1116;51.502;7.414;2023-10-31T04:26:09;4.97;;;3.10;;
2219;SDS011;1116;51.502;7.414;2023-10-31T04:28:40;7.47;;;3.50;;
2219;SDS011;1116;51.502;7.414;2023-10-31T04:31:10;9.13;;;4.00;;
2219;SDS011;1116;51.502;7.414;2023-10-31T04:33:40;9.55;;;4.57;;
2219;SDS011;1116;51.502;7.414;2023-10-31T04:36:10;7.32;;;3.35;;
2219;SDS011;1116;51.502;7.414;2023-10-31T04:38:43;6.43;;;3.88;;
2219;SDS011;1116;51.502;7.414;2023-10-31T04:41:13;8.15;;;3.83;;
2219;SDS011;1116;51.502;7.414;2023-10-31T04:43:43;7.35;;;4.00;;
2219;SDS011;1116;51.502;7.414;2023-10-31T04:46:13;6.53;;;4.20;;
2219;SDS011;1116;51.502;7.414;2023-10-31T04:48:44;9.48;;;4.15;;
2219;SDS011;1116;51.502;7.414;2023-10-31T04:51:14;7.88;;;3.78;;
2219;SDS011;1116;51.502;7.414;2023-10-31T04:53:46;7.75;;;4.00;;
2219;SDS011;1116;51.502;7.414;2023-10-31T04:56:17;7.65;;;3.95;;
2219;SDS011;1116;51.502;7.414;2023-10-31T04:58:48;7.82;;;4.22;;
2219;SDS011;1116;51.502;7.414;2023-10-31T05:01:18;7.85;;;4.03;;
2219;SDS011;1116;51.502;7.414;2023-10-31T05:03:48;9.00;;;4.47;;
2219;SDS011;1116;51.502;7.414;2023-10-31T05:06:32;6.45;;;4.03;;
2219;SDS011;1116;51.502;7.414;2023-10-31T05:09:05;6.72;;;4.18;;
2219;SDS011;1116;51.502;7.414;2023-10-31T05:11:37;7.00;;;4.20;;
2219;SDS011;1116;51.502;7.414;2023-10-31T05:14:08;8.57;;;3.60;;
2219;SDS011;1116;51.502;7.414;2023-10-31T05:16:39;9.48;;;3.58;;
2219;SDS011;1116;51.502;7.414;2023-10-31T05:19:10;7.47;;;4.75;;
2219;SDS011;1116;51.502;7.414;2023-10-31T05:21:40;7.65;;;4.38;;
2219;SDS011;1116;51.502;7.414;2023-10-31T05:24:14;7.53;;;4.20;;
2219;SDS011;1116;51.502;7.414;2023-10-31T05:26:44;8.30;;;4.00;;
2219;SDS011;1116;51.502;7.414;2023-10-31T05:29:14;8.45;;;3.97;;
2219;SDS011;1116;51.502;7.414;2023-10-31T05:31:44;5.90;;;3.70;;
2219;SDS011;1116;51.502;7.414;2023-10-31T05:34:14;8.10;;;4.10;;
2219;SDS011;1116;51.502;7.414;2023-10-31T05:36:44;7.68;;;3.80;;
2219;SDS011;1116;51.502;7.414;2023-10-31T05:39:17;6.07;;;2.90;;
2219;SDS011;1116;51.502;7.414;2023-10-31T05:41:47;7.38;;;3.75;;
2219;SDS011;1116;51.502;7.414;2023-10-31T05:44:18;7.03;;;3.92;;
2219;SDS011;1116;51.502;7.414;2023-10-31T05:46:48;8.23;;;3.90;;
2219;SDS011;1116;51.502;7.414;2023-10-31T05:49:18;5.93;;;3.70;;
2219;SDS011;1116;51.502;7.414;2023-10-31T05:51:49;8.50;;;4.38;;
2219;SDS011;1116;51.502;7.414;2023-10-31T05:54:23;8.02;;;4.68;;
2219;SDS011;1116;51.502;7.414;2023-10-31T05:56:53;11.00;;;4.60;;
2219;SDS011;1116;51.502;7.414;2023-10-31T05:59:23;7.65;;;4.07;;
2219;SDS011;1116;51.502;7.414;2023-10-31T06:01:54;8.50;;;3.65;;
2219;SDS011;1116;51.502;7.414;2023-10-31T06:04:25;7.05;;;4.05;;
2219;SDS011;1116;51.502;7.414;2023-10-31T06:06:55;6.55;;;3.95;;
2219;SDS011;1116;51.502;7.414;2023-10-31T06:09:28;6.15;;;3.33;;
2219;SDS011;1116;51.502;7.414;2023-10-31T06:11:59;13.50;;;5.00;;
2219;SDS011;1116;51.502;7.414;2023-10-31T06:14:29;7.85;;;4.68;;
2219;SDS011;1116;51.502;7.414;2023-10-31T06:16:59;10.57;;;4.88;;
2219;SDS011;1116;51.502;7.414;2023-10-31T06:19:33;9.90;;;5.43;;
2219;SDS011;1116;51.502;7.414;2023-10-31T06:22:03;14.25;;;6.40;;
2219;SDS011;1116;51.502;7.414;2023-10-31T06:24:36;11.52;;;6.43;;
2219;SDS011;1116;51.502;7.414;2023-10-31T06:27:07;14.20;;;7.28;;
2219;SDS011;1116;51.502;7.414;2023-10-31T06:29:37;15.45;;;6.78;;
2219;SDS011;1116;51.502;7.414;2023-10-31T06:32:26;13.60;;;7.75;;
2219;SDS011;1116;51.502;7.414;2023-10-31T06:34:56;15.90;;;8.00;;
2219;SDS011;1116;51.502;7.414;2023-10-31T06:37:27;13.77;;;7.18;;
2219;SDS011;1116;51.502;7.414;2023-10-31T06:39:59;17.25;;;7.97;;
2219;SDS011;1116;51.502;7.414;2023-10-31T06:42:29;14.50;;;7.85;;
2219;SDS011;1116;51.502;7.414;2023-10-31T06:45:00;16.30;;;8.13;;
2219;SDS011;1116;51.502;7.414;2023-10-31T06:47:30;15.45;;;8.50;;
2219;SDS011;1116;51.502;7.414;2023-10-31T06:50:00;13.35;;;7.68;;
2219;SDS011;1116;51.502;7.414;2023-10-31T06:52:30;14.88;;;7.65;;
2219;SDS011;1116;51.502;7.414;2023-10-31T06:55:03;15.20;;;7.85;;
2219;SDS011;1116;51.502;7.414;2023-10-31T06:57:34;18.70;;;9.38;;
2219;SDS011;1116;51.502;7.414;2023-10-31T07:00:05;17.13;;;9.07;;
2219;SDS011;1116;51.502;7.414;2023-10-31T07:02:37;20.17;;;9.15;;
2219;SDS011;1116;51.502;7.414;2023-10-31T07:05:08;14.57;;;8.38;;
2219;SDS011;1116;51.502;7.414;2023-10-31T07:07:38;16.38;;;9.52;;
2219;SDS011;1116;51.502;7.414;2023-10-31T07:10:11;14.73;;;8.32;;
2219;SDS011;1116;51.502;7.414;2023-10-31T07:12:41;17.77;;;8.68;;
2219;SDS011;1116;51.502;7.414;2023-10-31T07:15:11;14.55;;;8.52;;
2219;SDS011;1116;51.502;7.414;2023-10-31T07:17:41;18.83;;;8.40;;
2219;SDS011;1116;51.502;7.414;2023-10-31T07:20:12;13.07;;;7.53;;
2219;SDS011;1116;51.502;7.414;2023-10-31T07:22:43;17.35;;;8.27;;
2219;SDS011;1116;51.502;7.414;2023-10-31T07:25:16;15.18;;;7.35;;
2219;SDS011;1116;51.502;7.414;2023-10-31T07:27:47;14.98;;;7.65;;
2219;SDS011;1116;51.502;7.414;2023-10-31T07:30:17;14.90;;;8.57;;
2219;SDS011;1116;51.502;7.414;2023-10-31T07:32:47;12.60;;;7.55;;
2219;SDS011;1116;51.502;7.414;2023-10-31T07:35:18;14.95;;;7.15;;
2219;SDS011;1116;51.502;7.414;2023-10-31T07:37:48;12.00;;;7.07;;
2219;SDS011;1116;51.502;7.414;2023-10-31T07:40:21;11.57;;;6.60;;
2219;SDS011;1116;51.502;7.414;2023-10-31T07:42:51;11.15;;;6.10;;
2219;SDS011;1116;51.502;7.414;2023-10-31T07:45:21;14.98;;;6.13;;
2219;SDS011;1116;51.502;7.414;2023-10-31T07:47:52;12.73;;;6.43;;
2219;SDS011;1116;51.502;7.414;2023-10-31T07:50:22;10.25;;;6.55;;
2219;SDS011;1116;51.502;7.414;2023-10-31T07:52:52;9.82;;;5.90;;
2219;SDS011;1116;51.502;7.414;2023-10-31T07:55:25;8.52;;;5.53;;
2219;SDS011;1116;51.502;7.414;2023-10-31T07:57:55;11.98;;;6.00;;
2219;SDS011;1116;51.502;7.414;2023-10-31T08:00:25;12.00;;;5.53;;
2219;SDS011;1116;51.502;7.414;2023-10-31T08:02:55;12.23;;;5.78;;
2219;SDS011;1116;51.502;7.414;2023-10-31T08:05:26;13.20;;;6.07;;
2219;SDS011;1116;51.502;7.414;2023-10-31T08:07:56;11.57;;;5.82;;
2219;SDS011;1116;51.502;7.414;2023-10-31T08:10:28;7.97;;;5.05;;
2219;SDS011;1116;51.502;7.414;2023-10-31T08:13:00;9.70;;;5.65;;
2219;SDS011;1116;51.502;7.414;2023-10-31T08:15:31;14.98;;;5.63;;
2219;SDS011;1116;51.502;7.414;2023-10-31T08:18:01;9.43;;;5.18;;
2219;SDS011;1116;51.502;7.414;2023-10-31T08:20:32;9.68;;;5.57;;
2219;SDS011;1116;51.502;7.414;2023-10-31T08:23:02;8.23;;;5.50;;
2219;SDS011;1116;51.502;7.414;2023-10-31T08:25:35;13.02;;;5.97;;
2219;SDS011;1116;51.502;7.414;2023-10-31T08:28:05;7.40;;;4.85;;
2219;SDS011;1116;51.502;7.414;2023-10-31T08:30:35;8.75;;;5.68;;
2219;SDS011;1116;51.502;7.414;2023-10-31T08:33:06;8.82;;;5.95;;
2219;SDS011;1116;51.502;7.414;2023-10-31T08:35:37;8.00;;;5.60;;
2219;SDS011;1116;51.502;7.414;2023-10-31T08:38:08;8.52;;;5.85;;
2219;SDS011;1116;51.502;7.414;2023-10-31T08:40:55;9.05;;;5.47;;
2219;SDS011;1116;51.502;7.414;2023-10-31T08:43:26;12.35;;;6.80;;
2219;SDS011;1116;51.502;7.414;2023-10-31T08:45:56;12.13;;;5.75;;
2219;SDS011;1116;51.502;7.414;2023-10-31T08:48:26;11.65;;;6.20;;
2219;SDS011;1116;51.502;7.414;2023-10-31T08:50:56;8.15;;;5.82;;
2219;SDS011;1116;51.502;7.414;2023-10-31T08:53:26;9.55;;;5.88;;
2219;SDS011;1116;51.502;7.414;2023-10-31T08:55:59;9.05;;;5.07;;
2219;SDS011;1116;51.502;7.414;2023-10-31T08:58:29;7.93;;;5.80;;
2219;SDS011;1116;51.502;7.414;2023-10-31T09:01:00;8.85;;;5.80;;
2219;SDS011;1116;51.502;7.414;2023-10-31T09:03:30;8.45;;;5.43;;
2219;SDS011;1116;51.502;7.414;2023-10-31T09:06:00;10.88;;;5.70;;
2219;SDS011;1116;51.502;7.414;2023-10-31T09:08:32;10.23;;;5.75;;
2219;SDS011;1116;51.502;7.414;2023-10-31T09:11:06;12.18;;;5.55;;
2219;SDS011;1116;51.502;7.414;2023-10-31T09:13:36;8.73;;;5.15;;
2219;SDS011;1116;51.502;7.414;2023-10-31T09:16:06;7.80;;;5.10;;
2219;SDS011;1116;51.502;7.414;2023-10-31T09:18:37;6.03;;;4.88;;
2219;SDS011;1116;51.502;7.414;2023-10-31T09:21:08;8.23;;;5.03;;
2219;SDS011;1116;51.502;7.414;2023-10-31T09:23:38;7.95;;;4.97;;
2219;SDS011;1116;51.502;7.414;2023-10-31T09:26:10;7.95;;;4.70;;
2219;SDS011;1116;51.502;7.414;2023-10-31T09:28:40;7.72;;;4.80;;
2219;SDS011;1116;51.502;7.414;2023-10-31T09:31:16;8.00;;;4.50;;
2219;SDS011;1116;51.502;7.414;2023-10-31T09:33:46;7.30;;;5.07;;
2219;SDS011;1116;51.502;7.414;2023-10-31T09:36:17;11.32;;;5.50;;
2219;SDS011;1116;51.502;7.414;2023-10-31T09:38:47;8.02;;;4.68;;
2219;SDS011;1116;51.502;7.414;2023-10-31T09:41:19;5.95;;;4.43;;
2219;SDS011;1116;51.502;7.414;2023-10-31T09:43:49;8.13;;;4.60;;
2219;SDS011;1116;51.502;7.414;2023-10-31T09:46:20;9.38;;;4.18;;
2219;SDS011;1116;51.502;7.414;2023-10-31T09:48:51;8.93;;;4.13;;
2219;SDS011;1116;51.502;7.414;2023-10-31T09:51:21;8.25;;;3.97;;
2219;SDS011;1116;51.502;7.414;2023-10-31T09:53:51;8.00;;;4.43;;
2219;SDS011;1116;51.502;7.414;2023-10-31T09:56:28;5.93;;;3.70;;
2219;SDS011;1116;51.502;7.414;2023-10-31T09:59:01;8.02;;;3.90;;
2219;SDS011;1116;51.502;7.414;2023-10-31T10:01:32;6.50;;;3.75;;
2219;SDS011;1116;51.502;7.414;2023-10-31T10:04:03;5.60;;;3.55;;
2219;SDS011;1116;51.502;7.414;2023-10-31T10:06:35;9.30;;;4.22;;
2219;SDS011;1116;51.502;7.414;2023-10-31T10:09:18;5.50;;;3.67;;
2219;SDS011;1116;51.502;7.414;2023-10-31T10:11:50;8.18;;;4.07;;
2219;SDS011;1116;51.502;7.414;2023-10-31T10:14:22;7.35;;;3.88;;
2219;SDS011;1116;51.502;7.414;2023-10-31T10:16:55;8.75;;;3.58;;
2219;SDS011;1116;51.502;7.414;2023-10-31T10:19:25;9.80;;;3.15;;
2219;SDS011;1116;51.502;7.414;2023-10-31T10:21:56;5.80;;;3.38;;
2219;SDS011;1116;51.502;7.414;2023-10-31T10:24:27;5.93;;;3.17;;
2219;SDS011;1116;51.502;7.414;2023-10-31T10:27:00;5.55;;;3.53;;
2219;SDS011;1116;51.502;7.414;2023-10-31T10:29:31;5.82;;;3.33;;
2219;SDS011;1116;51.502;7.414;2023-10-31T10:32:04;9.88;;;4.28;;
2219;SDS011;1116;51.502;7.414;2023-10-31T10:34:36;6.45;;;3.60;;
2219;SDS011;1116;51.502;7.414;2023-10-31T10:37:06;7.70;;;3.42;;
2219;SDS011;1116;51.502;7.414;2023-10-31T10:39:36;8.80;;;4.10;;
2219;SDS011;1116;51.502;7.414;2023-10-31T10:42:11;6.15;;;3.17;;
2219;SDS011;1116;51.502;7.414;2023-10-31T10:44:46;9.38;;;3.60;;
2219;SDS011;1116;51.502;7.414;2023-10-31T10:47:19;6.75;;;3.38;;
2219;SDS011;1116;51.502;7.414;2023-10-31T10:49:50;10.27;;;4.28;;
2219;SDS011;1116;51.502;7.414;2023-10-31T10:52:27;5.85;;;3.63;;
2219;SDS011;1116;51.502;7.414;2023-10-31T10:55:03;6.07;;;3.75;;
2219;SDS011;1116;51.502;7.414;2023-10-31T10:57:42;6.57;;;3.95;;
2219;SDS011;1116;51.502;7.414;2023-10-31T11:00:22;9.25;;;4.65;;
2219;SDS011;1116;51.502;7.414;2023-10-31T11:02:53;10.52;;;4.80;;
2219;SDS011;1116;51.502;7.414;2023-10-31T11:05:26;13.55;;;3.60;;
2219;SDS011;1116;51.502;7.414;2023-10-31T11:07:56;13.77;;;4.28;;
2219;SDS011;1116;51.502;7.414;2023-10-31T11:10:27;9.02;;;3.80;;
2219;SDS011;1116;51.502;7.414;2023-10-31T11:13:01;7.78;;;4.18;;
2219;SDS011;1116;51.502;7.414;2023-10-31T11:15:32;6.82;;;3.83;;
2219;SDS011;1116;51.502;7.414;2023-10-31T11:18:02;9.38;;;3.95;;
2219;SDS011;1116;51.502;7.414;2023-10-31T11:20:33;9.68;;;3.97;;
2219;SDS011;1116;51.502;7.414;2023-10-31T11:23:04;8.95;;;4.32;;
2219;SDS011;1116;51.502;7.414;2023-10-31T11:25:35;10.23;;;4.20;;
2219;SDS011;1116;51.502;7.414;2023-10-31T11:28:14;9.48;;;4.43;;
2219;SDS011;1116;51.502;7.414;2023-10-31T11:30:48;11.33;;;4.37;;
2219;SDS011;1116;51.502;7.414;2023-10-31T11:33:25;8.20;;;3.88;;
2219;SDS011;1116;51.502;7.414;2023-10-31T11:36:00;6.45;;;3.10;;
2219;SDS011;1116;51.502;7.414;2023-10-31T11:38:31;8.55;;;3.45;;
2219;SDS011;1116;51.502;7.414;2023-10-31T11:41:04;5.85;;;3.63;;
2219;SDS011;1116;51.502;7.414;2023-10-31T11:43:39;10.07;;;3.40;;
2219;SDS011;1116;51.502;7.414;2023-10-31T11:46:21;10.27;;;3.90;;
2219;SDS011;1116;51.502;7.414;2023-10-31T11:48:55;5.22;;;2.88;;
2219;SDS011;1116;51.502;7.414;2023-10-31T11:51:26;7.80;;;3.63;;
2219;SDS011;1116;51.502;7.414;2023-10-31T11:53:57;12.25;;;3.85;;
2219;SDS011;1116;51.502;7.414;2023-10-31T11:56:28;7.22;;;3.40;;
2219;SDS011;1116;51.502;7.414;2023-10-31T11:59:01;8.63;;;3.47;;
2219;SDS011;1116;51.502;7.414;2023-10-31T12:01:33;9.90;;;3.08;;
2219;SDS011;1116;51.502;7.414;2023-10-31T12:04:03;5.53;;;3.20;;
2219;SDS011;1116;51.502;7.414;2023-10-31T12:06:34;8.25;;;3.20;;
2219;SDS011;1116;51.502;7.414;2023-10-31T12:09:04;8.43;;;3.03;;
2219;SDS011;1116;51.502;7.414;2023-10-31T12:11:37;10.60;;;3.08;;
2219;SDS011;1116;51.502;7.414;2023-10-31T12:14:17;11.90;;;2.55;;
2219;SDS011;1116;51.502;7.414;2023-10-31T12:16:48;3.35;;;2.17;;
2219;SDS011;1116;51.502;7.414;2023-10-31T12:19:20;5.13;;;2.60;;
2219;SDS011;1116;51.502;7.414;2023-10-31T12:21:50;3.45;;;2.22;;
2219;SDS011;1116;51.502;7.414;2023-10-31T12:24:22;6.40;;;2.25;;
2219;SDS011;1116;51.502;7.414;2023-10-31T12:26:52;6.75;;;2.20;;
2219;SDS011;1116;51.502;7.414;2023-10-31T12:29:25;8.02;;;2.35;;
2219;SDS011;1116;51.502;7.414;2023-10-31T12:31:55;6.50;;;2.45;;
2219;SDS011;1116;51.502;7.414;2023-10-31T12:34:26;5.10;;;2.00;;
2219;SDS011;1116;51.502;7.414;2023-10-31T12:36:56;6.90;;;2.08;;
2219;SDS011;1116;51.502;7.414;2023-10-31T12:39:27;7.35;;;1.63;;
2219;SDS011;1116;51.502;7.414;2023-10-31T12:41:58;11.55;;;2.20;;
2219;SDS011;1116;51.502;7.414;2023-10-31T12:44:31;5.00;;;2.33;;
2219;SDS011;1116;51.502;7.414;2023-10-31T12:47:02;3.55;;;1.70;;
2219;SDS011;1116;51.502;7.414;2023-10-31T12:49:37;6.05;;;1.60;;
2219;SDS011;1116;51.502;7.414;2023-10-31T12:52:07;6.00;;;1.83;;
2219;SDS011;1116;51.502;7.414;2023-10-31T12:54:38;4.22;;;1.83;;
2219;SDS011;1116;51.502;7.414;2023-10-31T12:57:09;6.10;;;1.70;;
2219;SDS011;1116;51.502;7.414;2023-10-31T12:59:42;7.75;;;2.65;;
2219;SDS011;1116;51.502;7.414;2023-10-31T13:02:15;3.55;;;1.60;;
2219;SDS011;1116;51.502;7.414;2023-10-31T13:04:46;3.00;;;1.58;;
2219;SDS011;1116;51.502;7.414;2023-10-31T13:07:25;11.00;;;1.90;;
2219;SDS011;1116;51.502;7.414;2023-10-31T13:09:56;6.97;;;2.00;;
2219;SDS011;1116;51.502;7.414;2023-10-31T13:12:26;4.65;;;1.70;;
2219;SDS011;1116;51.502;7.414;2023-10-31T13:15:02;4.75;;;1.45;;
2219;SDS011;1116;51.502;7.414;2023-10-31T13:17:34;9.57;;;1.50;;
2219;SDS011;1116;51.502;7.414;2023-10-31T13:20:05;5.03;;;1.60;;
2219;SDS011;1116;51.502;7.414;2023-10-31T13:22:37;6.40;;;1.88;;
2219;SDS011;1116;51.502;7.414;2023-10-31T13:25:08;7.78;;;1.90;;
2219;SDS011;1116;51.502;7.414;2023-10-31T13:27:40;3.45;;;1.58;;
2219;SDS011;1116;51.502;7.414;2023-10-31T13:30:20;8.68;;;1.88;;
2219;SDS011;1116;51.502;7.414;2023-10-31T13:32:52;3.55;;;1.50;;
2219;SDS011;1116;51.502;7.414;2023-10-31T13:35:23;2.22;;;1.13;;
2219;SDS011;1116;51.502;7.414;2023-10-31T13:37:54;3.30;;;1.50;;
2219;SDS011;1116;51.502;7.414;2023-10-31T13:40:24;2.70;;;1.23;;
2219;SDS011;1116;51.502;7.414;2023-10-31T13:42:54;2.20;;;1.27;;
2219;SDS011;1116;51.502;7.414;2023-10-31T13:45:27;4.90;;;1.60;;
2219;SDS011;1116;51.502;7.414;2023-10-31T13:47:57;5.25;;;1.58;;
2219;SDS011;1116;51.502;7.414;2023-10-31T13:50:27;3.42;;;1.60;;
2219;SDS011;1116;51.502;7.414;2023-10-31T13:52:57;6.88;;;1.52;;
2219;SDS011;1116;51.502;7.414;2023-10-31T13:55:29;8.15;;;1.40;;
2219;SDS011;1116;51.502;7.414;2023-10-31T13:57:59;3.90;;;1.33;;
2219;SDS011;1116;51.502;7.414;2023-10-31T14:00:32;4.65;;;1.85;;
2219;SDS011;1116;51.502;7.414;2023-10-31T14:03:02;4.47;;;1.58;;
2219;SDS011;1116;51.502;7.414;2023-10-31T14:05:33;5.15;;;1.50;;
2219;SDS011;1116;51.502;7.414;2023-10-31T14:08:04;6.65;;;1.80;;
2219;SDS011;1116;51.502;7.414;2023-10-31T14:10:35;2.58;;;1.38;;
2219;SDS011;1116;51.502;7.414;2023-10-31T14:13:06;2.40;;;1.33;;
2219;SDS011;1116;51.502;7.414;2023-10-31T14:15:39;2.88;;;1.35;;
2219;SDS011;1116;51.502;7.414;2023-10-31T14:18:10;2.83;;;1.65;;
2219;SDS011;1116;51.502;7.414;2023-10-31T14:20:42;2.83;;;1.42;;
2219;SDS011;1116;51.502;7.414;2023-10-31T14:23:12;3.65;;;1.30;;
2219;SDS011;1116;51.502;7.414;2023-10-31T14:25:42;2.35;;;1.23;;
2219;SDS011;1116;51.502;7.414;2023-10-31T14:28:12;2.83;;;1.33;;
2219;SDS011;1116;51.502;7.414;2023-10-31T14:30:45;4.28;;;1.13;;
2219;SDS011;1116;51.502;7.414;2023-10-31T14:33:15;4.85;;;1.70;;
2219;SDS011;1116;51.502;7.414;2023-10-31T14:35:45;3.03;;;1.63;;
2219;SDS011;1116;51.502;7.414;2023-10-31T14:38:15;5.55;;;2.28;;
2219;SDS011;1116;51.502;7.414;2023-10-31T14:40:45;3.00;;;1.80;;
2219;SDS011;1116;51.502;7.414;2023-10-31T14:43:15;7.18;;;2.28;;
2219;SDS011;1116;51.502;7.414;2023-10-31T14:45:48;5.63;;;1.67;;
2219;SDS011;1116;51.502;7.414;2023-10-31T14:48:20;5.82;;;1.52;;
2219;SDS011;1116;51.502;7.414;2023-10-31T14:50:50;2.90;;;1.40;;
2219;SDS011;1116;51.502;7.414;2023-10-31T14:53:21;1.65;;;1.15;;
2219;SDS011;1116;51.502;7.414;2023-10-31T14:55:51;1.90;;;1.30;;
2219;SDS011;1116;51.502;7.414;2023-10-31T14:58:21;3.05;;;1.38;;
2219;SDS011;1116;51.502;7.414;2023-10-31T15:00:53;7.00;;;1.60;;
2219;SDS011;1116;51.502;7.414;2023-10-31T15:03:24;3.42;;;1.95;;
2219;SDS011;1116;51.502;7.414;2023-10-31T15:05:54;6.70;;;2.47;;
2219;SDS011;1116;51.502;7.414;2023-10-31T15:08:24;6.45;;;2.20;;
2219;SDS011;1116;51.502;7.414;2023-10-31T15:10:54;4.43;;;1.70;;
2219;SDS011;1116;51.502;7.414;2023-10-31T15:13:24;6.70;;;1.98;;
2219;SDS011;1116;51.502;7.414;2023-10-31T15:15:58;7.00;;;1.80;;
2219;SDS011;1116;51.502;7.414;2023-10-31T15:18:30;4.87;;;2.13;;
2219;SDS011;1116;51.502;7.414;2023-10-31T15:21:00;3.30;;;1.70;;
2219;SDS011;1116;51.502;7.414;2023-10-31T15:23:30;3.60;;;2.03;;
2219;SDS011;1116;51.502;7.414;2023-10-31T15:26:02;6.75;;;2.38;;
2219;SDS011;1116;51.502;7.414;2023-10-31T15:28:39;5.10;;;1.70;;
2219;SDS011;1116;51.502;7.414;2023-10-31T15:31:12;3.47;;;2.00;;
2219;SDS011;1116;51.502;7.414;2023-10-31T15:33:42;5.03;;;2.25;;
2219;SDS011;1116;51.502;7.414;2023-10-31T15:36:12;5.03;;;2.78;;
2219;SDS011;1116;51.502;7.414;2023-10-31T15:38:43;5.88;;;2.97;;